Time;durP1;ratioP1;P1;durP2;ratioP2;P2;SDS_P1;SDS_P2;PMS_P1;PMS_P2;Temp;Humidity;BMP_temperature;BMP_pressure;BME280_temperature;BME280_humidity;BME280_pressure;Samples;Min_cycle;Max_cycle;Signal;HPM_P1;HPM_P2
2022/10/24 00:01:11;;;;;;;233.13;145.27;;;;;;;;;;4980262;28;20212;-70
2022/10/24 00:03:37;;;;;;;273.03;169.00;;;;;;;;;;4991560;28;20193;-71
2022/10/24 00:06:10;;;;;;;247.73;154.67;;;;;;;;;;5003047;28;20217;-73
2022/10/24 00:08:43;;;;;;;319.43;189.83;;;;;;;;;;4982898;28;20712;-71
2022/10/24 00:11:14;;;;;;;152.83;111.93;;;;;;;;;;4972170;28;20711;-70
2022/10/24 00:13:40;;;;;;;320.37;181.07;;;;;;;;;;4984058;28;20244;-71
2022/10/24 00:16:15;;;;;;;225.10;145.83;;;;;;;;;;4980271;28;20456;-70
2022/10/24 00:18:41;;;;;;;269.57;170.83;;;;;;;;;;4977728;28;20217;-71
2022/10/24 00:21:11;;;;;;;345.90;200.30;;;;;;;;;;4985531;28;20561;-71
2022/10/24 00:23:37;;;;;;;287.10;172.20;;;;;;;;;;4974842;28;20205;-73
2022/10/24 00:26:03;;;;;;;283.37;175.70;;;;;;;;;;4994620;28;20275;-70
2022/10/24 00:28:30;;;;;;;328.47;193.47;;;;;;;;;;4980404;28;20220;-69
2022/10/24 00:30:56;;;;;;;198.70;129.38;;;;;;;;;;4985353;28;21101;-69
2022/10/24 00:33:25;;;;;;;350.00;198.73;;;;;;;;;;5009367;28;20521;-71
2022/10/24 00:35:54;;;;;;;325.47;191.23;;;;;;;;;;4988788;28;20208;-71
2022/10/24 00:38:26;;;;;;;283.43;175.80;;;;;;;;;;5003319;28;20744;-71
2022/10/24 00:40:52;;;;;;;203.73;130.27;;;;;;;;;;4998311;28;20720;-70
2022/10/24 00:43:27;;;;;;;259.77;159.60;;;;;;;;;;4976793;28;20205;-71
2022/10/24 00:45:58;;;;;;;306.87;178.10;;;;;;;;;;4971438;28;20216;-71
2022/10/24 00:48:23;;;;;;;198.57;134.40;;;;;;;;;;4977121;28;20193;-71
2022/10/24 00:50:52;;;;;;;393.00;212.10;;;;;;;;;;4965905;28;20933;-70
2022/10/24 00:53:19;;;;;;;249.67;148.30;;;;;;;;;;4986175;28;20205;-70
2022/10/24 00:55:53;;;;;;;335.27;195.37;;;;;;;;;;4976547;28;20227;-72
2022/10/24 00:58:21;;;;;;;211.90;138.03;;;;;;;;;;4995807;28;20533;-70
2022/10/24 01:00:47;;;;;;;334.07;190.83;;;;;;;;;;4969979;28;20270;-70
2022/10/24 01:03:13;;;;;;;357.63;205.13;;;;;;;;;;4982897;28;20262;-72
2022/10/24 01:05:48;;;;;;;336.70;195.97;;;;;;;;;;4967789;28;20229;-70
2022/10/24 01:08:49;;;;;;;194.57;133.38;;;;;;;;;;4969983;28;20220;-70
2022/10/24 01:11:27;;;;;;;390.90;229.40;;;;;;;;;;4963453;28;20251;-72
2022/10/24 01:14:17;;;;;;;214.10;134.77;;;;;;;;;;4985021;28;20569;-70
2022/10/24 01:16:45;;;;;;;260.67;160.10;;;;;;;;;;4954500;28;21704;-70
2022/10/24 01:19:14;;;;;;;189.10;123.70;;;;;;;;;;4977270;28;20267;-69
2022/10/24 01:21:47;;;;;;;394.47;229.37;;;;;;;;;;4980798;28;21694;-71
2022/10/24 01:24:33;;;;;;;383.60;218.90;;;;;;;;;;4971396;28;20575;-71
2022/10/24 01:27:37;;;;;;;218.03;149.70;;;;;;;;;;4964678;28;20209;-70
2022/10/24 01:30:10;;;;;;;339.23;195.70;;;;;;;;;;4909551;28;20860;-71
2022/10/24 01:32:51;;;;;;;256.10;161.23;;;;;;;;;;4973999;28;20296;-70
2022/10/24 01:35:23;;;;;;;263.90;160.10;;;;;;;;;;4974894;28;21154;-72
2022/10/24 01:38:01;;;;;;;214.47;136.23;;;;;;;;;;4996774;28;20216;-70
2022/10/24 01:40:35;;;;;;;408.07;225.57;;;;;;;;;;4989389;28;20550;-71
2022/10/24 01:43:05;;;;;;;338.00;191.40;;;;;;;;;;4987148;28;20298;-72
2022/10/24 01:45:33;;;;;;;118.37;96.87;;;;;;;;;;4984870;28;20855;-70
2022/10/24 01:48:06;;;;;;;333.43;204.40;;;;;;;;;;4997432;28;20575;-72
2022/10/24 01:50:35;;;;;;;351.13;203.27;;;;;;;;;;4987888;28;20364;-70
2022/10/24 01:53:02;;;;;;;226.27;144.63;;;;;;;;;;4997482;28;20224;-69
2022/10/24 01:55:31;;;;;;;281.47;168.90;;;;;;;;;;4998566;28;20917;-71
2022/10/24 01:57:57;;;;;;;271.43;165.47;;;;;;;;;;4995527;28;20216;-71
2022/10/24 02:00:24;;;;;;;264.57;165.77;;;;;;;;;;5001062;28;20351;-70
2022/10/24 02:02:54;;;;;;;189.30;130.60;;;;;;;;;;4998889;28;20177;-70
2022/10/24 02:05:35;;;;;;;306.10;188.97;;;;;;;;;;4975857;28;20300;-72
2022/10/24 02:08:05;;;;;;;286.93;175.97;;;;;;;;;;4973233;28;20814;-71
2022/10/24 02:10:34;;;;;;;305.63;182.07;;;;;;;;;;4965114;28;20205;-69
2022/10/24 02:13:03;;;;;;;311.70;193.70;;;;;;;;;;4972283;28;20273;-71
2022/10/24 02:15:30;;;;;;;252.75;162.68;;;;;;;;;;4987975;28;20192;-70
2022/10/24 02:17:57;;;;;;;245.67;152.97;;;;;;;;;;4975923;28;20665;-71
2022/10/24 02:20:30;;;;;;;311.83;178.57;;;;;;;;;;4983494;28;20229;-70
2022/10/24 02:23:13;;;;;;;141.37;103.93;;;;;;;;;;4979766;28;20225;-70
2022/10/24 02:25:42;;;;;;;299.13;181.10;;;;;;;;;;4997081;28;20220;-70
2022/10/24 02:28:10;;;;;;;266.03;156.37;;;;;;;;;;4970522;28;23177;-71
2022/10/24 02:30:41;;;;;;;232.83;142.23;;;;;;;;;;4980470;28;22132;-71
2022/10/24 02:33:08;;;;;;;229.23;138.93;;;;;;;;;;4982846;28;20674;-70
2022/10/24 02:35:37;;;;;;;315.33;193.97;;;;;;;;;;4975735;28;20199;-70
2022/10/24 02:38:20;;;;;;;182.17;117.00;;;;;;;;;;4989743;28;20212;-69
2022/10/24 02:40:48;;;;;;;311.90;171.07;;;;;;;;;;4977480;28;20307;-70
2022/10/24 02:43:14;;;;;;;253.60;156.87;;;;;;;;;;5000300;28;20711;-71
2022/10/24 02:45:40;;;;;;;358.87;204.33;;;;;;;;;;4996371;28;20230;-70
2022/10/24 02:48:14;;;;;;;233.00;149.73;;;;;;;;;;4998336;28;20243;-71
2022/10/24 02:50:41;;;;;;;362.00;190.20;;;;;;;;;;4982708;28;20808;-70
2022/10/24 02:53:09;;;;;;;186.60;125.20;;;;;;;;;;5004287;28;20220;-70
2022/10/24 02:55:35;;;;;;;311.17;179.00;;;;;;;;;;4978420;28;20339;-70
2022/10/24 02:58:13;;;;;;;293.67;171.43;;;;;;;;;;4993251;28;20365;-72
2022/10/24 03:00:42;;;;;;;284.93;156.77;;;;;;;;;;4984464;28;22572;-70
2022/10/24 03:03:11;;;;;;;323.20;177.80;;;;;;;;;;4996814;28;20189;-70
2022/10/24 03:05:37;;;;;;;325.13;191.33;;;;;;;;;;4965811;28;20217;-70
2022/10/24 03:08:03;;;;;;;308.00;180.77;;;;;;;;;;4995055;28;20225;-69
2022/10/24 03:10:29;;;;;;;296.60;165.40;;;;;;;;;;4968288;28;20275;-71
2022/10/24 03:12:55;;;;;;;315.50;181.23;;;;;;;;;;4976424;28;20220;-70
2022/10/24 03:15:21;;;;;;;333.00;184.17;;;;;;;;;;4988062;28;20238;-71
2022/10/24 03:17:50;;;;;;;343.00;202.07;;;;;;;;;;4987030;28;20269;-70
2022/10/24 03:20:16;;;;;;;226.77;138.20;;;;;;;;;;4986358;28;20230;-72
2022/10/24 03:22:51;;;;;;;328.93;188.50;;;;;;;;;;4983568;28;20571;-70
2022/10/24 03:25:17;;;;;;;358.57;200.00;;;;;;;;;;4985903;28;20252;-72
2022/10/24 03:27:43;;;;;;;365.67;211.17;;;;;;;;;;4989265;28;20312;-70
2022/10/24 03:30:12;;;;;;;250.13;150.97;;;;;;;;;;4992868;28;20188;-71
2022/10/24 03:32:38;;;;;;;214.50;134.03;;;;;;;;;;4996057;28;20609;-70
2022/10/24 03:35:04;;;;;;;347.37;196.97;;;;;;;;;;4988849;28;20227;-70
2022/10/24 03:37:30;;;;;;;182.20;129.97;;;;;;;;;;5000742;28;20220;-69
2022/10/24 03:39:56;;;;;;;350.83;214.93;;;;;;;;;;4990221;28;20274;-70
2022/10/24 03:42:28;;;;;;;320.47;181.77;;;;;;;;;;4991277;28;23913;-71
2022/10/24 03:44:54;;;;;;;333.63;188.23;;;;;;;;;;4983621;28;22886;-70
2022/10/24 03:47:20;;;;;;;313.30;197.67;;;;;;;;;;4985465;28;20685;-71
2022/10/24 03:49:46;;;;;;;344.07;200.30;;;;;;;;;;4976652;28;20653;-73
2022/10/24 03:52:12;;;;;;;332.40;195.83;;;;;;;;;;4987407;28;20231;-69
2022/10/24 03:54:38;;;;;;;295.13;164.30;;;;;;;;;;4988427;28;20192;-69
2022/10/24 03:57:04;;;;;;;245.50;154.83;;;;;;;;;;4980407;28;20250;-70
2022/10/24 03:59:30;;;;;;;250.57;156.97;;;;;;;;;;4989440;28;20235;-69
2022/10/24 04:02:02;;;;;;;277.40;163.17;;;;;;;;;;4985788;28;20223;-72
2022/10/24 04:04:28;;;;;;;362.73;201.10;;;;;;;;;;4986368;28;20303;-71
2022/10/24 04:06:54;;;;;;;244.27;151.90;;;;;;;;;;4992241;28;20211;-70
2022/10/24 04:09:20;;;;;;;342.27;188.30;;;;;;;;;;4991221;28;20223;-71
2022/10/24 04:11:52;;;;;;;329.27;180.40;;;;;;;;;;5001134;28;20216;-70
2022/10/24 04:14:18;;;;;;;321.43;181.77;;;;;;;;;;4982033;28;20840;-70
2022/10/24 04:16:44;;;;;;;326.23;190.87;;;;;;;;;;4991903;28;20273;-70
2022/10/24 04:19:10;;;;;;;339.33;186.20;;;;;;;;;;5001167;28;20209;-70
2022/10/24 04:21:36;;;;;;;313.37;180.87;;;;;;;;;;4986607;28;20200;-72
2022/10/24 04:24:05;;;;;;;320.97;188.10;;;;;;;;;;5002977;28;20251;-71
2022/10/24 04:26:31;;;;;;;204.90;133.90;;;;;;;;;;4999210;28;20214;-70
2022/10/24 04:29:00;;;;;;;329.00;195.80;;;;;;;;;;4990468;28;20213;-70
2022/10/24 04:31:26;;;;;;;279.73;167.30;;;;;;;;;;4991304;28;20514;-71
2022/10/24 04:33:52;;;;;;;259.83;152.07;;;;;;;;;;4981673;28;20222;-69
2022/10/24 04:36:21;;;;;;;343.43;204.50;;;;;;;;;;4989923;28;20231;-71
2022/10/24 04:38:49;;;;;;;299.27;177.97;;;;;;;;;;4991497;28;20216;-70
2022/10/24 04:41:15;;;;;;;211.67;135.47;;;;;;;;;;4985784;28;20217;-69
2022/10/24 04:43:44;;;;;;;305.00;173.57;;;;;;;;;;4974500;28;20228;-70
2022/10/24 04:46:10;;;;;;;295.63;174.10;;;;;;;;;;4978528;28;20245;-71
2022/10/24 04:48:36;;;;;;;278.83;169.67;;;;;;;;;;4973299;28;20248;-70
2022/10/24 04:51:05;;;;;;;352.33;206.33;;;;;;;;;;4972536;28;20537;-70
2022/10/24 04:53:31;;;;;;;152.37;114.00;;;;;;;;;;4969081;28;21123;-72
2022/10/24 04:55:57;;;;;;;349.53;196.13;;;;;;;;;;4987942;28;20220;-71
2022/10/24 04:58:26;;;;;;;302.70;177.43;;;;;;;;;;5001504;28;20204;-71
2022/10/24 05:00:52;;;;;;;366.90;203.63;;;;;;;;;;5002545;28;20212;-73
2022/10/24 05:03:19;;;;;;;208.17;134.73;;;;;;;;;;4996314;28;20257;-70
2022/10/24 05:05:45;;;;;;;259.17;162.50;;;;;;;;;;4982998;28;20231;-69
2022/10/24 05:08:11;;;;;;;322.00;180.17;;;;;;;;;;5000452;28;20267;-69
2022/10/24 05:10:40;;;;;;;275.37;154.67;;;;;;;;;;4988481;28;20626;-71
2022/10/24 05:13:06;;;;;;;311.43;172.57;;;;;;;;;;4997040;28;20245;-71
2022/10/24 05:15:34;;;;;;;263.73;157.30;;;;;;;;;;4992497;28;20193;-70
2022/10/24 05:18:01;;;;;;;262.10;165.63;;;;;;;;;;4996479;28;20315;-71
2022/10/24 05:20:29;;;;;;;223.30;141.33;;;;;;;;;;5004629;28;20223;-76
2022/10/24 05:23:01;;;;;;;300.70;189.63;;;;;;;;;;4994712;28;20243;-73
2022/10/24 05:25:27;;;;;;;304.33;183.87;;;;;;;;;;5009437;28;20625;-72
2022/10/24 05:27:53;;;;;;;241.80;150.40;;;;;;;;;;4992372;28;20219;-74
2022/10/24 05:30:20;;;;;;;250.93;152.07;;;;;;;;;;5009631;28;20590;-73
2022/10/24 05:32:48;;;;;;;274.33;160.87;;;;;;;;;;5008196;28;20720;-72
2022/10/24 05:35:17;;;;;;;295.00;185.40;;;;;;;;;;5007959;28;20607;-70
2022/10/24 05:37:43;;;;;;;253.07;150.80;;;;;;;;;;5005128;28;20227;-73
2022/10/24 05:40:13;;;;;;;304.07;168.47;;;;;;;;;;5026171;28;20286;-72
2022/10/24 05:42:39;;;;;;;258.00;156.63;;;;;;;;;;5027705;28;20176;-72
2022/10/24 05:45:06;;;;;;;374.77;206.17;;;;;;;;;;5017026;28;20276;-72
2022/10/24 05:47:32;;;;;;;243.90;141.80;;;;;;;;;;5010731;28;20212;-72
2022/10/24 05:50:01;;;;;;;190.60;126.03;;;;;;;;;;5028277;28;20293;-71
2022/10/24 05:52:27;;;;;;;376.37;198.77;;;;;;;;;;5025943;28;20251;-71
2022/10/24 05:54:54;;;;;;;303.90;170.00;;;;;;;;;;4992983;28;22754;-64
2022/10/24 05:57:20;;;;;;;368.27;201.10;;;;;;;;;;4972490;28;20331;-66
2022/10/24 05:59:45;;;;;;;254.43;154.20;;;;;;;;;;5002684;28;20223;-64
2022/10/24 06:02:18;;;;;;;342.33;199.43;;;;;;;;;;4985900;28;20329;-66
2022/10/24 06:04:44;;;;;;;277.00;170.47;;;;;;;;;;4973406;28;20223;-64
2022/10/24 06:07:10;;;;;;;278.63;164.23;;;;;;;;;;4983905;28;20252;-64
2022/10/24 06:09:36;;;;;;;290.77;164.43;;;;;;;;;;4966850;28;20271;-64
2022/10/24 06:12:02;;;;;;;226.97;142.27;;;;;;;;;;4993325;28;20763;-65
2022/10/24 06:14:28;;;;;;;316.50;176.13;;;;;;;;;;5000431;28;20941;-72
2022/10/24 06:16:54;;;;;;;263.87;159.27;;;;;;;;;;5010300;28;20292;-73
2022/10/24 06:19:23;;;;;;;294.87;170.20;;;;;;;;;;5000975;28;20219;-76
2022/10/24 06:21:49;;;;;;;213.97;137.43;;;;;;;;;;4999038;28;20943;-72
2022/10/24 06:24:16;;;;;;;313.00;179.13;;;;;;;;;;5013047;28;20189;-74
2022/10/24 06:26:41;;;;;;;127.53;105.57;;;;;;;;;;5006570;28;20303;-69
2022/10/24 06:29:07;;;;;;;414.67;229.83;;;;;;;;;;5010851;28;20307;-69
2022/10/24 06:31:34;;;;;;;297.00;183.03;;;;;;;;;;5006265;28;20220;-72
2022/10/24 06:34:00;;;;;;;302.93;180.77;;;;;;;;;;5005506;28;20853;-72
2022/10/24 06:36:26;;;;;;;276.73;171.27;;;;;;;;;;5006697;28;20197;-72
2022/10/24 06:38:53;;;;;;;198.67;129.97;;;;;;;;;;5007424;28;20172;-71
2022/10/24 06:41:27;;;;;;;237.53;147.60;;;;;;;;;;5007230;28;20244;-72
2022/10/24 06:43:56;;;;;;;197.07;133.70;;;;;;;;;;5006658;28;20217;-72
2022/10/24 06:46:23;;;;;;;158.03;115.13;;;;;;;;;;4997860;28;20225;-71
2022/10/24 06:48:52;;;;;;;288.23;170.27;;;;;;;;;;4999105;28;20213;-70
2022/10/24 06:51:18;;;;;;;170.23;120.77;;;;;;;;;;5002157;28;20212;-69
2022/10/24 06:53:44;;;;;;;318.57;183.37;;;;;;;;;;5003645;28;20618;-70
2022/10/24 06:56:22;;;;;;;219.50;143.17;;;;;;;;;;5030483;28;20235;-73
2022/10/24 06:58:48;;;;;;;277.33;163.83;;;;;;;;;;5022359;28;20215;-71
2022/10/24 07:01:18;;;;;;;242.67;152.27;;;;;;;;;;5017379;28;20276;-71
2022/10/24 07:03:44;;;;;;;256.60;163.77;;;;;;;;;;5007751;28;20215;-70
2022/10/24 07:06:24;;;;;;;249.93;154.17;;;;;;;;;;5027876;28;20542;-70
2022/10/24 07:08:51;;;;;;;273.93;174.87;;;;;;;;;;5023660;28;20283;-70
2022/10/24 07:11:17;;;;;;;351.90;199.47;;;;;;;;;;5025537;28;20216;-70
2022/10/24 07:13:43;;;;;;;208.83;139.43;;;;;;;;;;5026473;28;20258;-71
2022/10/24 07:16:12;;;;;;;276.43;168.53;;;;;;;;;;5013630;28;20660;-70
2022/10/24 07:18:38;;;;;;;317.77;188.30;;;;;;;;;;5025171;28;20172;-70
2022/10/24 07:21:09;;;;;;;231.67;149.07;;;;;;;;;;5025483;28;20211;-70
2022/10/24 07:23:35;;;;;;;213.37;137.83;;;;;;;;;;5025434;28;20240;-72
2022/10/24 07:26:02;;;;;;;228.43;146.67;;;;;;;;;;5026027;28;20239;-69
2022/10/24 07:28:28;;;;;;;294.97;176.13;;;;;;;;;;5016978;28;20288;-70
2022/10/24 07:30:54;;;;;;;214.17;137.17;;;;;;;;;;5006431;28;20227;-70
2022/10/24 07:33:20;;;;;;;281.30;168.70;;;;;;;;;;5006535;28;20204;-71
2022/10/24 07:35:46;;;;;;;220.40;142.03;;;;;;;;;;5018936;28;20295;-71
2022/10/24 07:38:15;;;;;;;245.27;156.00;;;;;;;;;;5007548;28;20792;-71
2022/10/24 07:40:41;;;;;;;270.63;166.33;;;;;;;;;;5007458;28;20220;-70
2022/10/24 07:43:12;;;;;;;227.17;148.77;;;;;;;;;;5011615;28;20304;-69
2022/10/24 07:45:48;;;;;;;358.60;210.90;;;;;;;;;;5009725;28;20187;-71
2022/10/24 07:48:14;;;;;;;337.90;196.43;;;;;;;;;;5007373;28;20168;-70
2022/10/24 07:50:42;;;;;;;243.77;153.83;;;;;;;;;;5006097;28;20220;-70
2022/10/24 07:53:08;;;;;;;266.43;164.83;;;;;;;;;;5006853;28;20352;-69
2022/10/24 07:55:37;;;;;;;332.40;190.97;;;;;;;;;;5008993;28;20290;-70
2022/10/24 07:58:03;;;;;;;159.33;118.00;;;;;;;;;;5008676;28;20228;-70
2022/10/24 08:00:32;;;;;;;190.83;133.30;;;;;;;;;;5005751;28;20189;-69
2022/10/24 08:02:58;;;;;;;277.43;171.13;;;;;;;;;;5010625;28;20300;-70
2022/10/24 08:05:27;;;;;;;247.20;155.90;;;;;;;;;;5008388;28;20672;-69
2022/10/24 08:07:53;;;;;;;243.50;155.63;;;;;;;;;;5007940;28;20267;-70
2022/10/24 08:10:21;;;;;;;307.27;182.63;;;;;;;;;;5007374;28;20601;-69
2022/10/24 08:12:47;;;;;;;272.60;166.00;;;;;;;;;;5007422;28;20445;-70
2022/10/24 08:15:13;;;;;;;238.93;160.27;;;;;;;;;;5006339;28;20639;-69
2022/10/24 08:17:39;;;;;;;278.07;167.40;;;;;;;;;;5008166;28;20247;-70
2022/10/24 08:20:06;;;;;;;160.15;116.25;;;;;;;;;;5007490;28;20610;-70
2022/10/24 08:22:35;;;;;;;279.25;168.73;;;;;;;;;;5008122;28;20266;-70
2022/10/24 08:25:01;;;;;;;314.73;188.53;;;;;;;;;;5003873;28;20224;-68
2022/10/24 08:27:30;;;;;;;305.73;184.97;;;;;;;;;;5007877;28;20200;-68
2022/10/24 08:29:56;;;;;;;296.43;174.77;;;;;;;;;;5007956;28;20228;-68
2022/10/24 08:32:22;;;;;;;271.13;171.63;;;;;;;;;;5007804;28;20724;-68
2022/10/24 08:34:48;;;;;;;310.00;183.43;;;;;;;;;;5006900;28;20232;-68
2022/10/24 08:37:14;;;;;;;274.67;171.87;;;;;;;;;;5007991;28;20225;-68
2022/10/24 08:39:40;;;;;;;291.80;178.53;;;;;;;;;;5008237;28;20263;-69
2022/10/24 08:42:07;;;;;;;424.97;245.00;;;;;;;;;;5007267;28;20231;-69
2022/10/24 08:44:41;;;;;;;334.43;196.70;;;;;;;;;;5005596;28;20220;-69
2022/10/24 08:47:08;;;;;;;281.50;171.13;;;;;;;;;;5006417;28;20225;-68
2022/10/24 08:49:45;;;;;;;315.60;188.53;;;;;;;;;;5007291;28;20266;-69
2022/10/24 08:52:29;;;;;;;316.47;192.00;;;;;;;;;;5006296;28;20295;-69
2022/10/24 08:54:57;;;;;;;292.03;189.20;;;;;;;;;;5012586;28;20733;-69
2022/10/24 08:57:25;;;;;;;192.48;131.45;;;;;;;;;;5022772;28;20295;-69
2022/10/24 08:59:52;;;;;;;340.05;196.02;;;;;;;;;;4992955;28;20182;-68
2022/10/24 09:02:39;;;;;;;364.55;212.25;;;;;;;;;;5004247;28;20221;-68
2022/10/24 09:05:14;;;;;;;328.98;191.35;;;;;;;;;;5013971;28;20258;-69
2022/10/24 09:07:42;;;;;;;314.20;183.43;;;;;;;;;;5025940;28;20216;-69
2022/10/24 09:10:31;;;;;;;340.75;194.98;;;;;;;;;;5022688;28;20269;-68
2022/10/24 09:12:57;;;;;;;281.15;172.27;;;;;;;;;;5012595;28;20900;-69
2022/10/24 09:15:29;;;;;;;347.65;205.13;;;;;;;;;;5006815;28;20305;-69
2022/10/24 09:17:56;;;;;;;277.60;166.10;;;;;;;;;;5023359;28;20648;-69
2022/10/24 09:20:23;;;;;;;205.60;132.45;;;;;;;;;;5026002;28;20212;-69
2022/10/24 09:22:49;;;;;;;382.00;215.45;;;;;;;;;;5025417;28;20753;-69
2022/10/24 09:25:18;;;;;;;310.67;192.18;;;;;;;;;;5010154;28;20208;-70
2022/10/24 09:27:44;;;;;;;460.30;260.73;;;;;;;;;;5025872;28;20518;-69
2022/10/24 09:30:18;;;;;;;349.35;207.98;;;;;;;;;;5020440;28;20232;-69
2022/10/24 09:32:44;;;;;;;304.47;189.73;;;;;;;;;;5008046;28;20283;-69
2022/10/24 09:35:22;;;;;;;251.80;156.60;;;;;;;;;;5007273;28;20233;-69
2022/10/24 09:37:49;;;;;;;368.10;212.13;;;;;;;;;;5004868;28;20216;-71
2022/10/24 09:40:23;;;;;;;416.90;242.65;;;;;;;;;;5017020;28;20700;-70
2022/10/24 09:42:51;;;;;;;424.25;245.00;;;;;;;;;;5006578;28;20278;-69
2022/10/24 09:45:18;;;;;;;321.73;191.20;;;;;;;;;;5006288;28;20634;-68
2022/10/24 09:47:44;;;;;;;359.50;217.75;;;;;;;;;;5025550;28;20216;-68
2022/10/24 09:50:19;;;;;;;354.80;206.00;;;;;;;;;;5024423;28;20212;-68
2022/10/24 09:52:48;;;;;;;384.52;223.70;;;;;;;;;;5026026;28;20237;-68
2022/10/24 09:55:17;;;;;;;336.25;204.98;;;;;;;;;;5024937;28;20348;-69
2022/10/24 09:57:43;;;;;;;290.95;174.48;;;;;;;;;;5023772;28;20224;-69
2022/10/24 10:00:20;;;;;;;420.38;242.05;;;;;;;;;;5024346;28;20538;-69
2022/10/24 10:03:04;;;;;;;311.02;180.32;;;;;;;;;;5003940;28;20212;-69
2022/10/24 10:05:45;;;;;;;387.50;222.25;;;;;;;;;;5022363;28;20269;-69
2022/10/24 10:08:15;;;;;;;331.15;192.10;;;;;;;;;;5025646;28;20299;-68
2022/10/24 10:10:41;;;;;;;391.75;229.93;;;;;;;;;;5025740;28;20281;-68
2022/10/24 10:13:23;;;;;;;335.23;195.80;;;;;;;;;;5026537;28;20228;-71
2022/10/24 10:15:57;;;;;;;445.20;262.25;;;;;;;;;;5020346;28;20234;-70
2022/10/24 10:18:31;;;;;;;269.38;160.90;;;;;;;;;;5024675;28;20179;-72
2022/10/24 10:21:05;;;;;;;501.98;280.45;;;;;;;;;;5022446;28;20180;-71
2022/10/24 10:23:37;;;;;;;413.08;233.88;;;;;;;;;;5014073;28;20220;-71
2022/10/24 10:26:20;;;;;;;474.52;269.05;;;;;;;;;;5012284;28;20304;-71
2022/10/24 10:28:59;;;;;;;377.52;218.95;;;;;;;;;;5003211;28;20531;-72
2022/10/24 10:31:33;;;;;;;306.00;176.43;;;;;;;;;;5005669;28;20213;-72
2022/10/24 10:34:11;;;;;;;419.25;241.77;;;;;;;;;;5002675;28;20216;-72
2022/10/24 10:36:43;;;;;;;482.58;280.08;;;;;;;;;;4998777;28;20246;-70
2022/10/24 10:39:09;;;;;;;466.30;268.58;;;;;;;;;;5009526;28;20227;-70
2022/10/24 10:41:38;;;;;;;464.85;268.80;;;;;;;;;;4997527;28;20216;-69
2022/10/24 10:44:10;;;;;;;459.55;260.02;;;;;;;;;;4980695;28;20225;-69
2022/10/24 10:46:36;;;;;;;476.40;269.42;;;;;;;;;;4993636;28;20217;-69
2022/10/24 10:49:02;;;;;;;395.30;225.70;;;;;;;;;;5005744;28;20231;-69
2022/10/24 10:51:31;;;;;;;441.92;253.18;;;;;;;;;;5005925;28;20187;-71
2022/10/24 10:54:24;;;;;;;504.67;281.58;;;;;;;;;;5008788;28;20523;-71
2022/10/24 10:56:54;;;;;;;536.85;306.40;;;;;;;;;;4975962;28;20335;-69
2022/10/24 10:59:26;;;;;;;551.70;313.42;;;;;;;;;;4969371;28;21030;-70
2022/10/24 11:02:11;;;;;;;595.28;324.95;;;;;;;;;;4991483;28;20670;-71
2022/10/24 11:04:42;;;;;;;415.20;224.02;;;;;;;;;;4988997;28;20216;-71
2022/10/24 11:07:11;;;;;;;449.38;245.98;;;;;;;;;;4980280;28;20217;-68
2022/10/24 11:09:44;;;;;;;360.23;198.13;;;;;;;;;;4981120;28;22025;-68
2022/10/24 11:12:18;;;;;;;478.55;265.55;;;;;;;;;;5001240;28;20231;-68
2022/10/24 11:15:07;;;;;;;405.85;217.43;;;;;;;;;;4986007;28;20220;-70
2022/10/24 11:17:36;;;;;;;535.58;290.92;;;;;;;;;;4989271;28;20307;-69
2022/10/24 11:20:04;;;;;;;443.23;242.60;;;;;;;;;;5003293;28;20677;-69
2022/10/24 11:22:34;;;;;;;571.13;319.50;;;;;;;;;;4999373;28;20284;-69
2022/10/24 11:25:08;;;;;;;428.60;233.50;;;;;;;;;;4995165;28;20213;-69
2022/10/24 11:27:38;;;;;;;436.38;234.27;;;;;;;;;;4994445;28;20244;-69
2022/10/24 11:30:08;;;;;;;536.38;290.20;;;;;;;;;;5000999;28;20173;-69
2022/10/24 11:32:37;;;;;;;549.25;308.70;;;;;;;;;;4994303;28;20221;-70
2022/10/24 11:35:22;;;;;;;352.50;194.65;;;;;;;;;;4995261;28;20665;-70
2022/10/24 11:37:50;;;;;;;600.30;336.48;;;;;;;;;;4993828;28;20599;-70
2022/10/24 11:40:20;;;;;;;352.27;192.85;;;;;;;;;;4998970;28;20279;-69
2022/10/24 11:42:53;;;;;;;537.13;291.35;;;;;;;;;;4997420;28;20244;-69
2022/10/24 11:45:37;;;;;;;447.42;239.50;;;;;;;;;;4995701;28;20189;-70
2022/10/24 11:48:04;;;;;;;516.47;275.42;;;;;;;;;;4996728;28;20515;-70
2022/10/24 11:50:49;;;;;;;549.22;295.50;;;;;;;;;;4994143;28;20208;-70
2022/10/24 11:53:30;;;;;;;524.72;285.23;;;;;;;;;;5000193;28;20724;-70
2022/10/24 11:55:59;;;;;;;493.53;267.97;;;;;;;;;;4993401;28;20227;-70
2022/10/24 11:58:27;;;;;;;579.08;313.10;;;;;;;;;;4986724;28;20347;-71
2022/10/24 12:01:05;;;;;;;476.97;268.67;;;;;;;;;;4991128;28;20220;-69
2022/10/24 12:03:43;;;;;;;457.98;246.40;;;;;;;;;;4977992;28;20205;-63
2022/10/24 12:06:21;;;;;;;499.93;263.37;;;;;;;;;;4954642;28;20205;-71
2022/10/24 12:09:04;;;;;;;572.07;302.83;;;;;;;;;;4983404;28;20244;-73
2022/10/24 12:11:36;;;;;;;490.13;266.97;;;;;;;;;;5002806;28;20230;-72
2022/10/24 12:14:08;;;;;;;573.63;312.40;;;;;;;;;;5002203;28;20289;-72
2022/10/24 12:16:42;;;;;;;605.23;333.27;;;;;;;;;;4998107;28;20767;-69
2022/10/24 12:19:14;;;;;;;583.10;314.10;;;;;;;;;;4983013;28;20221;-69
2022/10/24 12:21:44;;;;;;;586.53;315.43;;;;;;;;;;4959399;28;25644;-69
2022/10/24 12:24:21;;;;;;;400.17;215.43;;;;;;;;;;4972205;28;20267;-69
2022/10/24 12:26:54;;;;;;;529.17;287.87;;;;;;;;;;4983915;28;20774;-69
2022/10/24 12:29:23;;;;;;;661.50;355.45;;;;;;;;;;4981344;28;20218;-69
2022/10/24 12:31:49;;;;;;;565.95;294.60;;;;;;;;;;4985715;28;22266;-69
2022/10/24 12:34:15;;;;;;;645.90;343.08;;;;;;;;;;4984391;28;20250;-70
2022/10/24 12:37:00;;;;;;;464.67;247.05;;;;;;;;;;4994318;28;20224;-69
2022/10/24 12:39:33;;;;;;;526.10;278.10;;;;;;;;;;4988430;28;20175;-70
2022/10/24 12:41:59;;;;;;;586.23;321.97;;;;;;;;;;4967662;28;20236;-69
2022/10/24 12:44:26;;;;;;;570.33;308.27;;;;;;;;;;4987581;28;20220;-69
2022/10/24 12:46:53;;;;;;;643.20;344.33;;;;;;;;;;5000177;28;20320;-69
2022/10/24 12:49:27;;;;;;;606.47;337.70;;;;;;;;;;4993762;28;20289;-69
2022/10/24 12:51:53;;;;;;;464.37;260.97;;;;;;;;;;5001404;28;20237;-69
2022/10/24 12:54:40;;;;;;;637.38;356.70;;;;;;;;;;4994559;28;20193;-69
2022/10/24 12:57:07;;;;;;;578.57;333.40;;;;;;;;;;5009783;28;20339;-69
2022/10/24 12:59:44;;;;;;;470.90;263.38;;;;;;;;;;4990947;28;20297;-69
2022/10/24 13:02:11;;;;;;;452.13;259.07;;;;;;;;;;4995365;28;20618;-68
2022/10/24 13:04:40;;;;;;;486.97;265.17;;;;;;;;;;4982851;28;20247;-68
2022/10/24 13:07:12;;;;;;;582.17;332.40;;;;;;;;;;4970121;28;21614;-69
2022/10/24 13:09:45;;;;;;;686.77;397.60;;;;;;;;;;4959318;28;20903;-70
2022/10/24 13:12:35;;;;;;;552.40;316.33;;;;;;;;;;4982301;28;20208;-68
2022/10/24 13:15:23;;;;;;;472.30;266.53;;;;;;;;;;5001896;28;20713;-68
2022/10/24 13:17:54;;;;;;;510.10;294.43;;;;;;;;;;4970559;28;21046;-70
2022/10/24 13:20:23;;;;;;;387.35;207.77;;;;;;;;;;4999966;28;20213;-70
2022/10/24 13:22:52;;;;;;;457.07;256.50;;;;;;;;;;4998138;28;20269;-70
2022/10/24 13:25:32;;;;;;;539.50;292.43;;;;;;;;;;5004649;28;20252;-70
2022/10/24 13:28:18;;;;;;;462.27;258.87;;;;;;;;;;4982706;28;20213;-71
2022/10/24 13:30:44;;;;;;;565.55;307.98;;;;;;;;;;5005312;28;20283;-69
2022/10/24 13:33:29;;;;;;;402.88;221.52;;;;;;;;;;5019422;28;20216;-69
2022/10/24 13:36:21;;;;;;;449.55;253.27;;;;;;;;;;4997658;28;20243;-69
2022/10/24 13:38:57;;;;;;;447.10;240.75;;;;;;;;;;4999976;28;20235;-68
2022/10/24 13:41:27;;;;;;;439.58;242.70;;;;;;;;;;4985124;28;20217;-68
2022/10/24 13:43:55;;;;;;;397.05;217.18;;;;;;;;;;4986065;28;20221;-69
2022/10/24 13:46:31;;;;;;;578.78;325.75;;;;;;;;;;4981221;28;20769;-69
2022/10/24 13:48:57;;;;;;;585.97;324.97;;;;;;;;;;4979562;28;20292;-69
2022/10/24 13:51:43;;;;;;;567.78;307.08;;;;;;;;;;4981609;28;20185;-67
2022/10/24 13:54:20;;;;;;;404.60;223.50;;;;;;;;;;4987193;28;20299;-69
2022/10/24 13:56:46;;;;;;;421.60;233.77;;;;;;;;;;4977039;28;20287;-67
2022/10/24 13:59:26;;;;;;;478.27;265.43;;;;;;;;;;4989338;28;20216;-67
2022/10/24 14:01:52;;;;;;;524.80;291.03;;;;;;;;;;4995454;28;20226;-68
2022/10/24 14:04:18;;;;;;;461.83;260.83;;;;;;;;;;4998216;28;20213;-69
2022/10/24 14:06:44;;;;;;;560.00;302.93;;;;;;;;;;4987456;28;20290;-69
2022/10/24 14:09:10;;;;;;;399.70;214.77;;;;;;;;;;4998351;28;20235;-68